Terminal Aerodrome Forecast
Issued by NWS Wilmington, OH

Current Version | Previous Version | Graphics & Text | Print | Product List | Glossary On
Versions: 1 2 3 4 5 6 7 8 9 10 11 12 13 14 15 16 17 18 19 20 21 22 23 24 25 26
000
FTUS41 KILN 260500
TAFCVG
TAF
KCVG 260539Z 2606/2712 19004KT P6SM SCT200
     FM261500 20010G20KT P6SM SCT200
     FM262300 20008KT P6SM SCT200
     FM270500 18005KT P6SM SCT030
      TEMPO 2705/2709 BKN030=

USA.gov is the U.S. government's official web portal to all federal, state and local government web resources and services.